Time;durP1;ratioP1;P1;durP2;ratioP2;P2;SDS_P1;SDS_P2;PMS_P1;PMS_P2;Temp;Humidity;BMP_temperature;BMP_pressure;BME280_temperature;BME280_humidity;BME280_pressure;Samples;Min_cycle;Max_cycle;Signal;HPM_P1;HPM_P2
2022/03/19 00:01:25;;;;;;;0.50;0.38;;;;;;;;;;4213720;28;20050;-40
2022/03/19 00:03:27;;;;;;;0.68;0.30;;;;;;;;;;4213115;28;20444;-40
2022/03/19 00:05:28;;;;;;;0.40;0.20;;;;;;;;;;4212310;28;20392;-39
2022/03/19 00:07:29;;;;;;;0.70;0.22;;;;;;;;;;4213425;28;20043;-39
2022/03/19 00:09:30;;;;;;;0.13;0.10;;;;;;;;;;4213553;28;20044;-40
2022/03/19 00:11:31;;;;;;;0.35;0.20;;;;;;;;;;4213305;28;20484;-39
2022/03/19 00:13:33;;;;;;;0.10;0.10;;;;;;;;;;4213235;28;20403;-40
2022/03/19 00:15:34;;;;;;;0.82;0.20;;;;;;;;;;4213833;28;20048;-40
2022/03/19 00:17:35;;;;;;;0.80;0.22;;;;;;;;;;4194867;28;20055;-39
2022/03/19 00:19:39;;;;;;;0.75;0.10;;;;;;;;;;4211979;28;20056;-39
2022/03/19 00:21:41;;;;;;;0.77;0.20;;;;;;;;;;4213336;28;20052;-39
2022/03/19 00:23:42;;;;;;;0.43;0.30;;;;;;;;;;4213193;28;20044;-40
2022/03/19 00:25:43;;;;;;;0.10;0.10;;;;;;;;;;4213506;28;20044;-39
2022/03/19 00:27:44;;;;;;;0.57;0.10;;;;;;;;;;4213253;28;20139;-39
2022/03/19 00:29:45;;;;;;;0.20;0.10;;;;;;;;;;4213669;28;20155;-40
2022/03/19 00:31:47;;;;;;;0.20;0.15;;;;;;;;;;4212811;28;20047;-40
2022/03/19 00:33:48;;;;;;;0.50;0.22;;;;;;;;;;4213386;28;20089;-41
2022/03/19 00:35:49;;;;;;;0.25;0.10;;;;;;;;;;4213472;28;20394;-39
2022/03/19 00:37:50;;;;;;;0.20;0.15;;;;;;;;;;4213021;28;20101;-40
2022/03/19 00:39:51;;;;;;;0.17;0.10;;;;;;;;;;4213373;28;20040;-40
2022/03/19 00:41:52;;;;;;;0.52;0.20;;;;;;;;;;4212930;28;20151;-41
2022/03/19 00:43:53;;;;;;;0.15;0.10;;;;;;;;;;4213260;28;20062;-40
2022/03/19 00:45:54;;;;;;;0.25;0.10;;;;;;;;;;4213284;28;20110;-40
2022/03/19 00:47:55;;;;;;;0.10;0.10;;;;;;;;;;4213018;28;20140;-40
2022/03/19 00:49:56;;;;;;;0.20;0.20;;;;;;;;;;4213055;28;20052;-40
2022/03/19 00:51:57;;;;;;;1.48;0.30;;;;;;;;;;4212810;28;20091;-40
2022/03/19 00:53:58;;;;;;;0.38;0.20;;;;;;;;;;4212911;28;20174;-40
2022/03/19 00:55:59;;;;;;;0.32;0.20;;;;;;;;;;4212884;28;20058;-41
2022/03/19 00:58:00;;;;;;;0.30;0.20;;;;;;;;;;4212926;28;20109;-41
2022/03/19 01:00:01;;;;;;;0.50;0.20;;;;;;;;;;4212845;28;20108;-40
2022/03/19 01:02:02;;;;;;;0.43;0.20;;;;;;;;;;4212604;28;20063;-40
2022/03/19 01:04:03;;;;;;;0.25;0.10;;;;;;;;;;4212889;28;20499;-39
2022/03/19 01:06:04;;;;;;;0.20;0.10;;;;;;;;;;4213040;28;20049;-40
2022/03/19 01:08:05;;;;;;;0.15;0.15;;;;;;;;;;4212887;28;20126;-40
2022/03/19 01:10:06;;;;;;;0.15;0.10;;;;;;;;;;4212539;28;20199;-40
2022/03/19 01:12:07;;;;;;;0.75;0.25;;;;;;;;;;4212750;28;20549;-40
2022/03/19 01:14:08;;;;;;;0.10;0.10;;;;;;;;;;4213012;28;20101;-40
2022/03/19 01:16:11;;;;;;;0.50;0.20;;;;;;;;;;4212836;28;20487;-40
2022/03/19 01:18:12;;;;;;;0.10;0.10;;;;;;;;;;4212509;28;20097;-41
2022/03/19 01:20:13;;;;;;;0.40;0.20;;;;;;;;;;4212637;28;20102;-40
2022/03/19 01:22:16;;;;;;;0.10;0.10;;;;;;;;;;4212597;28;20048;-37
2022/03/19 01:24:17;;;;;;;0.52;0.20;;;;;;;;;;4212765;28;20530;-40
2022/03/19 01:26:18;;;;;;;0.85;0.20;;;;;;;;;;4212603;28;20483;-40
2022/03/19 01:28:19;;;;;;;0.30;0.10;;;;;;;;;;4212792;28;20096;-41
2022/03/19 01:30:21;;;;;;;0.32;0.30;;;;;;;;;;4212932;28;20052;-38
2022/03/19 01:32:23;;;;;;;0.17;0.10;;;;;;;;;;4212260;28;20043;-38
2022/03/19 01:34:24;;;;;;;1.08;0.30;;;;;;;;;;4211350;28;20446;-39
2022/03/19 01:36:25;;;;;;;0.60;0.30;;;;;;;;;;4212617;28;20095;-39
2022/03/19 01:38:26;;;;;;;0.15;0.10;;;;;;;;;;4212369;28;20048;-39
2022/03/19 01:40:27;;;;;;;0.20;0.10;;;;;;;;;;4212440;28;20060;-39
2022/03/19 01:42:29;;;;;;;0.20;0.10;;;;;;;;;;4212468;28;20055;-39
2022/03/19 01:44:30;;;;;;;0.63;0.20;;;;;;;;;;4211375;28;20052;-38
2022/03/19 01:46:31;;;;;;;0.20;0.20;;;;;;;;;;4212550;28;20442;-39
2022/03/19 01:48:32;;;;;;;1.27;0.17;;;;;;;;;;4212034;28;20056;-39
2022/03/19 01:50:33;;;;;;;0.10;0.10;;;;;;;;;;4211233;28;20056;-39
2022/03/19 01:52:34;;;;;;;0.32;0.20;;;;;;;;;;4212605;28;20505;-38
2022/03/19 01:54:36;;;;;;;0.50;0.20;;;;;;;;;;4212384;28;20562;-41
2022/03/19 01:56:37;;;;;;;0.15;0.15;;;;;;;;;;4211169;28;20109;-39
2022/03/19 01:58:39;;;;;;;0.32;0.10;;;;;;;;;;4194738;28;20053;-39
2022/03/19 02:00:40;;;;;;;0.10;0.10;;;;;;;;;;4212340;28;20059;-39
2022/03/19 02:02:43;;;;;;;0.10;0.05;;;;;;;;;;4210795;28;20078;-39
2022/03/19 02:04:44;;;;;;;0.10;0.10;;;;;;;;;;4212671;28;20052;-40
2022/03/19 02:06:46;;;;;;;0.57;0.17;;;;;;;;;;4212336;28;20207;-39
2022/03/19 02:08:48;;;;;;;0.20;0.20;;;;;;;;;;4212460;28;20093;-39
2022/03/19 02:10:49;;;;;;;0.50;0.10;;;;;;;;;;4212138;28;20101;-39
2022/03/19 02:12:50;;;;;;;0.20;0.20;;;;;;;;;;4213109;28;20553;-39
2022/03/19 02:14:51;;;;;;;0.28;0.10;;;;;;;;;;4215578;28;20052;-40
2022/03/19 02:16:53;;;;;;;0.10;0.10;;;;;;;;;;4214744;28;20101;-40
2022/03/19 02:18:56;;;;;;;0.88;0.30;;;;;;;;;;4214026;28;20059;-39
2022/03/19 02:20:58;;;;;;;0.22;0.20;;;;;;;;;;4215442;28;20048;-39
2022/03/19 02:25:36;;;;;;;0.22;0.10;;;;;;;;;;4215199;28;20089;-40
2022/03/19 02:27:37;;;;;;;0.20;0.10;;;;;;;;;;4213950;28;20438;-39
2022/03/19 02:29:38;;;;;;;0.68;0.32;;;;;;;;;;4215116;28;20048;-39
2022/03/19 02:31:41;;;;;;;0.80;0.30;;;;;;;;;;4215070;28;20101;-39
2022/03/19 02:33:42;;;;;;;0.45;0.20;;;;;;;;;;4214521;28;20093;-39
2022/03/19 02:35:44;;;;;;;0.20;0.10;;;;;;;;;;4215039;28;20066;-39
2022/03/19 02:37:48;;;;;;;0.40;0.10;;;;;;;;;;4215136;28;20109;-39
2022/03/19 02:39:49;;;;;;;0.32;0.15;;;;;;;;;;4214869;28;20445;-40
2022/03/19 02:41:50;;;;;;;0.38;0.20;;;;;;;;;;4214962;28;20052;-39
2022/03/19 02:43:51;;;;;;;0.22;0.20;;;;;;;;;;4213657;28;20483;-39
2022/03/19 02:45:52;;;;;;;0.52;0.20;;;;;;;;;;4214972;28;20093;-39
2022/03/19 02:47:59;;;;;;;0.20;0.10;;;;;;;;;;4214289;28;20058;-39
2022/03/19 02:50:00;;;;;;;0.10;0.10;;;;;;;;;;4214727;28;20047;-41
2022/03/19 02:52:02;;;;;;;0.25;0.20;;;;;;;;;;4214558;28;20463;-38
2022/03/19 02:54:04;;;;;;;0.47;0.10;;;;;;;;;;4214738;28;20400;-38
2022/03/19 02:56:05;;;;;;;0.50;0.20;;;;;;;;;;4214743;28;20052;-40
2022/03/19 02:58:07;;;;;;;0.68;0.30;;;;;;;;;;4214659;28;20460;-39
2022/03/19 03:00:08;;;;;;;0.90;0.10;;;;;;;;;;4214512;28;20506;-40
2022/03/19 03:02:09;;;;;;;0.03;0.03;;;;;;;;;;4214407;28;20052;-39
2022/03/19 03:04:10;;;;;;;0.40;0.10;;;;;;;;;;4214581;28;20537;-39
2022/03/19 03:06:11;;;;;;;0.63;0.30;;;;;;;;;;4214373;28;20098;-41
2022/03/19 03:08:12;;;;;;;0.77;0.10;;;;;;;;;;4213193;28;20048;-39
2022/03/19 03:10:15;;;;;;;0.13;0.10;;;;;;;;;;4214476;28;20067;-39
2022/03/19 03:12:16;;;;;;;0.38;0.13;;;;;;;;;;4214323;28;20052;-40
2022/03/19 03:14:19;;;;;;;0.30;0.10;;;;;;;;;;4214462;28;20602;-40
2022/03/19 03:16:20;;;;;;;0.15;0.10;;;;;;;;;;4214354;28;20105;-39
2022/03/19 03:18:22;;;;;;;0.30;0.20;;;;;;;;;;4213852;28;20056;-39
2022/03/19 03:20:23;;;;;;;0.10;0.10;;;;;;;;;;4214423;28;20052;-39
2022/03/19 03:22:24;;;;;;;0.20;0.10;;;;;;;;;;4214179;28;20441;-39
2022/03/19 03:24:25;;;;;;;0.10;0.10;;;;;;;;;;4213212;28;20070;-38
2022/03/19 03:26:26;;;;;;;0.40;0.20;;;;;;;;;;4196477;28;20044;-39
2022/03/19 03:28:27;;;;;;;0.30;0.15;;;;;;;;;;4214117;28;20462;-39
2022/03/19 03:30:28;;;;;;;0.60;0.25;;;;;;;;;;4214124;28;20551;-38
2022/03/19 03:32:29;;;;;;;0.30;0.30;;;;;;;;;;4213726;28;20485;-38
2022/03/19 03:34:30;;;;;;;0.00;0.00;;;;;;;;;;4214138;28;20439;-39
2022/03/19 03:36:31;;;;;;;0.20;0.20;;;;;;;;;;4214010;28;20170;-39
2022/03/19 03:38:32;;;;;;;0.10;0.10;;;;;;;;;;4213994;28;20054;-39
2022/03/19 03:40:33;;;;;;;0.77;0.20;;;;;;;;;;4213927;28;20417;-39
2022/03/19 03:42:34;;;;;;;0.25;0.10;;;;;;;;;;4214162;28;20093;-40
2022/03/19 03:44:35;;;;;;;0.63;0.15;;;;;;;;;;4214170;28;20098;-39
2022/03/19 03:46:36;;;;;;;0.65;0.10;;;;;;;;;;4213820;28;20090;-39
2022/03/19 03:48:37;;;;;;;0.10;0.10;;;;;;;;;;4213400;28;20044;-39
2022/03/19 03:50:39;;;;;;;0.10;0.10;;;;;;;;;;4213735;28;20487;-39
2022/03/19 03:52:40;;;;;;;0.10;0.10;;;;;;;;;;4213780;28;20056;-39
2022/03/19 03:54:41;;;;;;;0.20;0.10;;;;;;;;;;4213807;28;20103;-40
2022/03/19 03:56:42;;;;;;;0.10;0.10;;;;;;;;;;4213692;28;20063;-39
2022/03/19 03:58:43;;;;;;;0.40;0.10;;;;;;;;;;4213568;28;20133;-39
2022/03/19 04:00:44;;;;;;;0.28;0.10;;;;;;;;;;4213970;28;20097;-39
2022/03/19 04:02:44;;;;;;;1.35;0.20;;;;;;;;;;4213155;28;20091;-39
2022/03/19 04:04:45;;;;;;;0.55;0.28;;;;;;;;;;4213628;28;20113;-39
2022/03/19 04:06:46;;;;;;;0.28;0.20;;;;;;;;;;4213728;28;20442;-39
2022/03/19 04:08:47;;;;;;;0.52;0.25;;;;;;;;;;4213503;28;20164;-38
2022/03/19 04:10:48;;;;;;;0.30;0.20;;;;;;;;;;4213299;28;20086;-38
2022/03/19 04:12:49;;;;;;;0.15;0.10;;;;;;;;;;4212060;28;20130;-38
2022/03/19 04:14:51;;;;;;;0.30;0.20;;;;;;;;;;4213749;28;20094;-38
2022/03/19 04:16:52;;;;;;;0.20;0.10;;;;;;;;;;4212965;28;20375;-39
2022/03/19 04:18:53;;;;;;;0.30;0.20;;;;;;;;;;4213651;28;20044;-39
2022/03/19 04:20:54;;;;;;;0.17;0.10;;;;;;;;;;4213587;28;20108;-39
2022/03/19 04:22:55;;;;;;;0.50;0.20;;;;;;;;;;4213552;28;20066;-38
2022/03/19 04:24:56;;;;;;;0.22;0.20;;;;;;;;;;4213197;28;20410;-38
2022/03/19 04:26:57;;;;;;;0.98;0.22;;;;;;;;;;4213484;28;20073;-38
2022/03/19 04:28:58;;;;;;;0.20;0.15;;;;;;;;;;4213233;28;20055;-38
2022/03/19 04:30:59;;;;;;;0.13;0.10;;;;;;;;;;4211962;28;20450;-39
2022/03/19 04:33:01;;;;;;;0.30;0.10;;;;;;;;;;4212680;28;20113;-39
2022/03/19 04:36:29;;;;;;;0.50;0.17;;;;;;;;;;4211813;28;20052;-38
2022/03/19 04:37:25;;;;;;;0.22;0.20;;;;;;;;;;4213047;28;20161;-39
2022/03/19 04:39:26;;;;;;;0.50;0.17;;;;;;;;;;4213178;28;20602;-38
2022/03/19 04:41:28;;;;;;;0.90;0.22;;;;;;;;;;4213034;28;20387;-39
2022/03/19 04:43:29;;;;;;;0.40;0.10;;;;;;;;;;4213110;28;20043;-39
2022/03/19 04:45:30;;;;;;;0.70;0.20;;;;;;;;;;4213065;28;20101;-40
2022/03/19 04:47:31;;;;;;;0.20;0.10;;;;;;;;;;4212375;28;20088;-39
2022/03/19 04:49:32;;;;;;;0.40;0.10;;;;;;;;;;4213068;28;20079;-39
2022/03/19 04:51:33;;;;;;;0.20;0.10;;;;;;;;;;4212946;28;20055;-39
2022/03/19 04:53:34;;;;;;;0.10;0.10;;;;;;;;;;4212816;28;20052;-40
2022/03/19 04:55:36;;;;;;;0.60;0.17;;;;;;;;;;4212981;28;20102;-39
2022/03/19 04:57:37;;;;;;;0.85;0.10;;;;;;;;;;4212898;28;20052;-38
2022/03/19 04:59:38;;;;;;;0.32;0.10;;;;;;;;;;4212972;28;20052;-40
2022/03/19 05:01:39;;;;;;;0.10;0.10;;;;;;;;;;4213031;28;20185;-40
2022/03/19 05:03:40;;;;;;;0.63;0.20;;;;;;;;;;4212276;28;20384;-40
2022/03/19 05:05:41;;;;;;;0.15;0.10;;;;;;;;;;4212809;28;20109;-40
2022/03/19 05:07:43;;;;;;;0.38;0.10;;;;;;;;;;4212770;28;20048;-40
2022/03/19 05:12:05;;;;;;;0.20;0.15;;;;;;;;;;4196308;28;20048;-40
2022/03/19 05:14:06;;;;;;;0.80;0.20;;;;;;;;;;4196136;28;20052;-40
2022/03/19 05:16:07;;;;;;;0.20;0.10;;;;;;;;;;4196031;28;20048;-39
2022/03/19 05:18:08;;;;;;;0.15;0.10;;;;;;;;;;4195754;28;20101;-39
2022/03/19 05:20:10;;;;;;;0.22;0.10;;;;;;;;;;4195912;28;20051;-40
2022/03/19 05:22:11;;;;;;;0.73;0.40;;;;;;;;;;4194841;28;20071;-39
2022/03/19 05:24:12;;;;;;;0.20;0.10;;;;;;;;;;4196411;28;20052;-39
2022/03/19 05:26:13;;;;;;;0.20;0.10;;;;;;;;;;4196106;28;20056;-40
2022/03/19 05:28:13;;;;;;;0.10;0.10;;;;;;;;;;4195823;28;20058;-40
2022/03/19 05:30:14;;;;;;;0.05;0.05;;;;;;;;;;4195929;28;20095;-41
2022/03/19 05:32:15;;;;;;;0.20;0.20;;;;;;;;;;4195351;28;20056;-39
2022/03/19 05:34:31;;;;;;;0.57;0.20;;;;;;;;;;4195703;28;20117;-40
2022/03/19 05:36:32;;;;;;;0.10;0.10;;;;;;;;;;4195917;28;20052;-39
2022/03/19 05:38:34;;;;;;;0.15;0.10;;;;;;;;;;4194703;28;20061;-39
2022/03/19 05:40:35;;;;;;;0.30;0.30;;;;;;;;;;4195663;28;20052;-39
2022/03/19 05:42:36;;;;;;;0.70;0.20;;;;;;;;;;4196157;28;20183;-39
2022/03/19 05:44:37;;;;;;;0.17;0.10;;;;;;;;;;4196105;28;20106;-38
2022/03/19 05:46:38;;;;;;;0.38;0.20;;;;;;;;;;4195565;28;20446;-38
2022/03/19 05:48:39;;;;;;;0.30;0.20;;;;;;;;;;4213053;28;20048;-38
2022/03/19 05:50:40;;;;;;;0.10;0.10;;;;;;;;;;4199082;28;20098;-40
2022/03/19 05:52:41;;;;;;;0.65;0.10;;;;;;;;;;4205690;28;20086;-39
2022/03/19 05:54:43;;;;;;;0.52;0.25;;;;;;;;;;4214312;28;20138;-39
2022/03/19 05:56:44;;;;;;;0.32;0.10;;;;;;;;;;4215665;28;20044;-39
2022/03/19 05:58:44;;;;;;;0.52;0.35;;;;;;;;;;4215506;28;20052;-39
2022/03/19 06:00:46;;;;;;;0.15;0.15;;;;;;;;;;4215338;28;20563;-38
2022/03/19 06:02:47;;;;;;;0.28;0.20;;;;;;;;;;4213881;28;20056;-38
2022/03/19 06:04:48;;;;;;;0.43;0.10;;;;;;;;;;4214229;28;20127;-40
2022/03/19 06:06:49;;;;;;;0.38;0.20;;;;;;;;;;4215560;28;20117;-40
2022/03/19 06:08:51;;;;;;;0.10;0.10;;;;;;;;;;4215639;28;20060;-40
2022/03/19 06:10:51;;;;;;;0.20;0.20;;;;;;;;;;4214184;28;20587;-39
2022/03/19 06:12:52;;;;;;;0.20;0.10;;;;;;;;;;4215764;28;20380;-39
2022/03/19 06:14:54;;;;;;;0.30;0.10;;;;;;;;;;4215304;28;20105;-39
2022/03/19 06:16:55;;;;;;;0.38;0.10;;;;;;;;;;4214802;28;20055;-39
2022/03/19 06:18:56;;;;;;;0.30;0.20;;;;;;;;;;4215455;28;20116;-39
2022/03/19 06:20:57;;;;;;;0.10;0.10;;;;;;;;;;4215102;28;20067;-39
2022/03/19 06:23:00;;;;;;;0.10;0.10;;;;;;;;;;4213760;28;20079;-39
2022/03/19 06:25:01;;;;;;;1.20;0.10;;;;;;;;;;4215405;28;20089;-38
2022/03/19 06:27:03;;;;;;;0.30;0.10;;;;;;;;;;4214986;28;20063;-39
2022/03/19 06:29:04;;;;;;;0.35;0.20;;;;;;;;;;4214998;28;20158;-38
2022/03/19 06:31:05;;;;;;;0.47;0.20;;;;;;;;;;4215128;28;20112;-39
2022/03/19 06:33:06;;;;;;;0.10;0.10;;;;;;;;;;4214616;28;20136;-39
2022/03/19 06:35:08;;;;;;;0.20;0.10;;;;;;;;;;4215098;28;20117;-39
2022/03/19 06:37:21;;;;;;;0.22;0.22;;;;;;;;;;4214865;28;20093;-39
2022/03/19 06:39:22;;;;;;;0.20;0.13;;;;;;;;;;4213684;28;20224;-39
2022/03/19 06:41:23;;;;;;;0.10;0.10;;;;;;;;;;4214778;28;20140;-38
2022/03/19 06:43:25;;;;;;;0.10;0.10;;;;;;;;;;4214835;28;20048;-38
2022/03/19 06:45:26;;;;;;;0.57;0.20;;;;;;;;;;4213649;28;20085;-38
2022/03/19 06:47:27;;;;;;;0.15;0.15;;;;;;;;;;4214633;28;20068;-39
2022/03/19 06:49:29;;;;;;;0.10;0.10;;;;;;;;;;4215035;28;20483;-40
2022/03/19 06:51:30;;;;;;;0.10;0.10;;;;;;;;;;4214912;28;20101;-39
2022/03/19 06:53:31;;;;;;;0.10;0.10;;;;;;;;;;4214562;28;20088;-38
2022/03/19 06:55:32;;;;;;;0.20;0.17;;;;;;;;;;4215032;28;20047;-39
2022/03/19 06:57:33;;;;;;;0.20;0.20;;;;;;;;;;4213173;28;20063;-39
2022/03/19 06:59:34;;;;;;;0.52;0.30;;;;;;;;;;4214729;28;20055;-39
2022/03/19 07:01:39;;;;;;;0.17;0.10;;;;;;;;;;4214901;28;20483;-39
2022/03/19 07:03:44;;;;;;;0.30;0.13;;;;;;;;;;4214330;28;20542;-39
2022/03/19 07:05:45;;;;;;;0.38;0.00;;;;;;;;;;4214794;28;20418;-39
2022/03/19 07:07:46;;;;;;;0.10;0.10;;;;;;;;;;4214434;28;20237;-39
2022/03/19 07:09:49;;;;;;;0.10;0.10;;;;;;;;;;4214674;28;20055;-39
2022/03/19 07:11:51;;;;;;;0.20;0.20;;;;;;;;;;4214629;28;20052;-39
2022/03/19 07:13:52;;;;;;;0.22;0.10;;;;;;;;;;4214619;28;20106;-39
2022/03/19 07:15:53;;;;;;;0.10;0.10;;;;;;;;;;4214594;28;20463;-39
2022/03/19 07:17:54;;;;;;;0.10;0.10;;;;;;;;;;4214292;28;20536;-39
2022/03/19 07:19:55;;;;;;;0.30;0.10;;;;;;;;;;4214158;28;20550;-39
2022/03/19 07:21:56;;;;;;;0.10;0.10;;;;;;;;;;4214182;28;20057;-39
2022/03/19 07:23:57;;;;;;;0.10;0.10;;;;;;;;;;4214235;28;20094;-39
2022/03/19 07:25:59;;;;;;;0.13;0.10;;;;;;;;;;4214387;28;20098;-39
2022/03/19 07:28:02;;;;;;;0.20;0.10;;;;;;;;;;4213867;28;20044;-39
2022/03/19 07:30:03;;;;;;;0.20;0.20;;;;;;;;;;4214131;28;20044;-39
2022/03/19 07:32:04;;;;;;;0.10;0.00;;;;;;;;;;4213824;28;20056;-39
2022/03/19 07:34:05;;;;;;;0.75;0.20;;;;;;;;;;4214300;28;20101;-39
2022/03/19 07:36:06;;;;;;;0.10;0.10;;;;;;;;;;4214389;28;20089;-40
2022/03/19 07:38:09;;;;;;;0.15;0.15;;;;;;;;;;4214115;28;20566;-40
2022/03/19 07:40:11;;;;;;;0.30;0.13;;;;;;;;;;4213962;28;20414;-38
2022/03/19 07:42:12;;;;;;;0.30;0.10;;;;;;;;;;4213756;28;20070;-38
2022/03/19 07:44:13;;;;;;;0.38;0.20;;;;;;;;;;4212729;28;20048;-39
2022/03/19 07:46:14;;;;;;;0.15;0.10;;;;;;;;;;4213871;28;20101;-39
2022/03/19 07:48:15;;;;;;;0.10;0.10;;;;;;;;;;4212299;28;20052;-40
2022/03/19 07:50:16;;;;;;;0.20;0.10;;;;;;;;;;4214050;28;20445;-39
2022/03/19 07:52:17;;;;;;;0.17;0.17;;;;;;;;;;4213732;28;20070;-39
2022/03/19 07:54:18;;;;;;;0.10;0.10;;;;;;;;;;4213740;28;20084;-39
2022/03/19 07:56:18;;;;;;;0.10;0.10;;;;;;;;;;4213600;28;20054;-39
2022/03/19 07:58:19;;;;;;;0.73;0.10;;;;;;;;;;4212560;28;20116;-40
2022/03/19 08:00:21;;;;;;;0.17;0.10;;;;;;;;;;4213729;28;20047;-39
2022/03/19 08:02:22;;;;;;;0.35;0.10;;;;;;;;;;4213151;28;20052;-40
2022/03/19 08:04:23;;;;;;;0.17;0.10;;;;;;;;;;4213855;28;20089;-39
2022/03/19 08:06:24;;;;;;;0.28;0.03;;;;;;;;;;4213543;28;20433;-39
2022/03/19 08:08:25;;;;;;;0.10;0.10;;;;;;;;;;4213780;28;20059;-39
2022/03/19 08:10:26;;;;;;;0.05;0.05;;;;;;;;;;4212774;28;20055;-39
2022/03/19 08:12:27;;;;;;;0.43;0.10;;;;;;;;;;4213676;28;20486;-39
2022/03/19 08:14:29;;;;;;;0.10;0.10;;;;;;;;;;4213659;28;20415;-39
2022/03/19 08:16:30;;;;;;;0.20;0.10;;;;;;;;;;4213558;28;20059;-39
2022/03/19 08:18:31;;;;;;;0.10;0.10;;;;;;;;;;4212961;28;20544;-39
2022/03/19 08:20:32;;;;;;;0.80;0.10;;;;;;;;;;4213221;28;20100;-39
2022/03/19 08:22:33;;;;;;;1.08;0.20;;;;;;;;;;4213305;28;20099;-39
2022/03/19 08:24:34;;;;;;;0.20;0.10;;;;;;;;;;4213314;28;20455;-41
2022/03/19 08:26:35;;;;;;;0.50;0.15;;;;;;;;;;4213303;28;20439;-40
2022/03/19 08:28:36;;;;;;;0.10;0.10;;;;;;;;;;4213360;28;20082;-39
2022/03/19 08:30:37;;;;;;;0.10;0.10;;;;;;;;;;4213444;28;20127;-39
2022/03/19 08:32:38;;;;;;;0.10;0.10;;;;;;;;;;4212893;28;20193;-40
2022/03/19 08:34:39;;;;;;;0.90;0.10;;;;;;;;;;4213315;28;20056;-41
2022/03/19 08:36:40;;;;;;;0.20;0.20;;;;;;;;;;4213199;28;20127;-40
2022/03/19 08:41:00;;;;;;;0.22;0.10;;;;;;;;;;4213273;28;20051;-40
2022/03/19 08:43:01;;;;;;;0.10;0.08;;;;;;;;;;4213093;28;20069;-40
2022/03/19 08:45:02;;;;;;;0.35;0.10;;;;;;;;;;4213050;28;20040;-39
2022/03/19 08:47:03;;;;;;;0.10;0.10;;;;;;;;;;4212485;28;20056;-40
2022/03/19 08:49:04;;;;;;;0.10;0.10;;;;;;;;;;4213185;28;20073;-40
2022/03/19 08:53:25;;;;;;;0.10;0.10;;;;;;;;;;4211858;28;20059;-40
2022/03/19 08:55:25;;;;;;;0.32;0.13;;;;;;;;;;4213073;28;20563;-40
2022/03/19 08:57:26;;;;;;;0.13;0.10;;;;;;;;;;4212843;28;20151;-40
2022/03/19 08:59:27;;;;;;;0.40;0.20;;;;;;;;;;4213099;28;20123;-40
2022/03/19 09:01:28;;;;;;;0.20;0.10;;;;;;;;;;4213008;28;20106;-40
2022/03/19 09:03:29;;;;;;;0.10;0.10;;;;;;;;;;4212593;28;20514;-40
2022/03/19 09:05:32;;;;;;;0.15;0.10;;;;;;;;;;4213016;28;20105;-39
2022/03/19 09:07:32;;;;;;;0.82;0.10;;;;;;;;;;4212745;28;20044;-40
2022/03/19 09:09:35;;;;;;;0.28;0.10;;;;;;;;;;4212825;28;20502;-39
2022/03/19 09:11:36;;;;;;;0.10;0.10;;;;;;;;;;4211417;28;20075;-41
2022/03/19 09:13:37;;;;;;;0.10;0.10;;;;;;;;;;4212910;28;20090;-40
2022/03/19 09:15:38;;;;;;;0.20;0.10;;;;;;;;;;4212786;28;20105;-40
2022/03/19 09:17:39;;;;;;;0.10;0.10;;;;;;;;;;4212221;28;20097;-40
2022/03/19 09:19:40;;;;;;;0.82;0.20;;;;;;;;;;4212765;28;20063;-40
2022/03/19 09:21:41;;;;;;;0.13;0.13;;;;;;;;;;4211330;28;20071;-40
2022/03/19 09:23:42;;;;;;;0.17;0.10;;;;;;;;;;4215194;28;20176;-40
2022/03/19 09:25:43;;;;;;;0.52;0.15;;;;;;;;;;4216140;28;20094;-40
2022/03/19 09:27:44;;;;;;;0.60;0.10;;;;;;;;;;4216061;28;20102;-40
2022/03/19 09:29:44;;;;;;;0.40;0.20;;;;;;;;;;4216142;28;20540;-41
2022/03/19 09:31:46;;;;;;;0.47;0.20;;;;;;;;;;4215870;28;20093;-40
2022/03/19 09:33:47;;;;;;;0.30;0.30;;;;;;;;;;4215816;28;20059;-39
2022/03/19 09:35:48;;;;;;;0.65;0.10;;;;;;;;;;4216029;28;20059;-40
2022/03/19 09:37:49;;;;;;;0.10;0.05;;;;;;;;;;4216053;28;20048;-40
2022/03/19 09:39:49;;;;;;;1.55;0.10;;;;;;;;;;4216118;28;20096;-41
2022/03/19 09:41:50;;;;;;;0.10;0.10;;;;;;;;;;4215911;28;20518;-40
2022/03/19 09:43:51;;;;;;;0.15;0.10;;;;;;;;;;4215783;28;20086;-41
2022/03/19 09:45:52;;;;;;;0.00;0.00;;;;;;;;;;4215736;28;20123;-40
2022/03/19 09:47:54;;;;;;;0.43;0.10;;;;;;;;;;4215124;28;20052;-40
2022/03/19 09:49:56;;;;;;;0.50;0.10;;;;;;;;;;4216075;28;20040;-40
2022/03/19 09:51:58;;;;;;;0.15;0.10;;;;;;;;;;4215578;28;20056;-41
2022/03/19 09:53:58;;;;;;;0.10;0.10;;;;;;;;;;4215581;28;20056;-41
2022/03/19 09:56:02;;;;;;;0.10;0.10;;;;;;;;;;4214465;28;20135;-39
2022/03/19 09:58:03;;;;;;;0.13;0.05;;;;;;;;;;4197401;28;20048;-40
2022/03/19 10:00:04;;;;;;;0.30;0.10;;;;;;;;;;4198797;28;20091;-40
2022/03/19 10:02:06;;;;;;;0.57;0.20;;;;;;;;;;4198246;28;20111;-40
2022/03/19 10:04:07;;;;;;;0.10;0.10;;;;;;;;;;4198888;28;20052;-40
2022/03/19 10:08:41;;;;;;;0.20;0.10;;;;;;;;;;4198730;28;20102;-40
2022/03/19 10:10:42;;;;;;;;;;;;;;;;;;4199069;28;20048;-40
2022/03/19 10:12:44;;;;;;;0.13;0.10;;;;;;;;;;4198679;28;19920;-40
2022/03/19 10:14:46;;;;;;;0.85;0.20;;;;;;;;;;4198781;28;20060;-40
2022/03/19 10:16:48;;;;;;;0.10;0.10;;;;;;;;;;4198204;28;20060;-42
2022/03/19 10:19:00;;;;;;;0.10;0.10;;;;;;;;;;4198458;28;20048;-40
2022/03/19 10:21:02;;;;;;;0.40;0.10;;;;;;;;;;4197062;28;20114;-40
2022/03/19 10:23:03;;;;;;;0.17;0.10;;;;;;;;;;4198356;28;20404;-40
2022/03/19 10:25:08;;;;;;;0.20;0.10;;;;;;;;;;4197161;28;20052;-40
2022/03/19 10:27:16;;;;;;;0.50;0.20;;;;;;;;;;4198328;28;20055;-40
2022/03/19 10:29:25;;;;;;;0.10;0.10;;;;;;;;;;4197225;28;20041;-40
2022/03/19 10:31:37;;;;;;;0.20;0.10;;;;;;;;;;4198318;28;20048;-41
2022/03/19 10:33:38;;;;;;;0.10;0.10;;;;;;;;;;4196008;28;20052;-41
2022/03/19 10:35:40;;;;;;;0.73;0.10;;;;;;;;;;4198176;28;20131;-41
2022/03/19 10:37:42;;;;;;;0.30;0.20;;;;;;;;;;4209622;28;20056;-41
2022/03/19 10:39:46;;;;;;;0.05;0.00;;;;;;;;;;4215154;28;20097;-40
2022/03/19 10:41:48;;;;;;;0.40;0.10;;;;;;;;;;4214769;28;20048;-40
2022/03/19 10:43:49;;;;;;;0.13;0.10;;;;;;;;;;4214906;28;20055;-40
2022/03/19 10:45:52;;;;;;;0.93;0.20;;;;;;;;;;4214793;28;20047;-40
2022/03/19 10:47:53;;;;;;;0.40;0.25;;;;;;;;;;4213269;28;20153;-40
2022/03/19 10:50:00;;;;;;;0.20;0.10;;;;;;;;;;4215322;28;20047;-40
2022/03/19 10:52:05;;;;;;;0.30;0.10;;;;;;;;;;4214939;28;20056;-41
2022/03/19 10:54:06;;;;;;;0.30;0.10;;;;;;;;;;4214528;28;20458;-40
2022/03/19 10:56:08;;;;;;;0.70;0.17;;;;;;;;;;4215004;28;20048;-41
2022/03/19 10:58:09;;;;;;;0.70;0.10;;;;;;;;;;4214475;28;20056;-40
2022/03/19 11:00:11;;;;;;;0.13;0.10;;;;;;;;;;4214658;28;20441;-40
2022/03/19 11:02:15;;;;;;;0.25;0.20;;;;;;;;;;4213887;28;20120;-40
2022/03/19 11:04:16;;;;;;;0.22;0.10;;;;;;;;;;4214760;28;20105;-41
2022/03/19 11:06:19;;;;;;;0.40;0.10;;;;;;;;;;4214453;28;20101;-40
2022/03/19 11:08:20;;;;;;;0.22;0.20;;;;;;;;;;4214558;28;20048;-41
2022/03/19 11:10:21;;;;;;;0.30;0.10;;;;;;;;;;4214203;28;20075;-40
2022/03/19 11:12:25;;;;;;;0.40;0.20;;;;;;;;;;4214481;28;20055;-40
2022/03/19 11:14:27;;;;;;;0.13;0.13;;;;;;;;;;4214342;28;20106;-41
2022/03/19 11:16:30;;;;;;;0.20;0.00;;;;;;;;;;4213197;28;20101;-41
2022/03/19 11:18:31;;;;;;;0.20;0.13;;;;;;;;;;4214038;28;20043;-40
2022/03/19 11:20:33;;;;;;;0.20;0.10;;;;;;;;;;4214044;28;20043;-41
2022/03/19 11:22:44;;;;;;;0.47;0.10;;;;;;;;;;4214334;28;20165;-41
2022/03/19 11:25:00;;;;;;;0.30;0.10;;;;;;;;;;4213110;28;20523;-42
2022/03/19 11:27:01;;;;;;;0.05;0.05;;;;;;;;;;4214106;28;20040;-40
2022/03/19 11:29:04;;;;;;;0.40;0.10;;;;;;;;;;4214128;28;20093;-41
2022/03/19 11:31:09;;;;;;;0.20;0.10;;;;;;;;;;4214354;28;20060;-41
2022/03/19 11:33:16;;;;;;;1.13;0.10;;;;;;;;;;4212284;28;20085;-41
2022/03/19 11:35:24;;;;;;;0.25;0.20;;;;;;;;;;4213985;28;20102;-42
2022/03/19 11:37:45;;;;;;;0.10;0.08;;;;;;;;;;4214202;28;20052;-43
2022/03/19 11:40:01;;;;;;;0.82;0.10;;;;;;;;;;4213899;28;20060;-42
2022/03/19 11:42:05;;;;;;;0.30;0.10;;;;;;;;;;4213783;28;20048;-43
2022/03/19 11:44:25;;;;;;;0.50;0.20;;;;;;;;;;4213893;28;20052;-41
2022/03/19 11:46:26;;;;;;;;;;;;;;;;;;4213628;28;20483;-41
2022/03/19 11:48:36;;;;;;;0.52;0.15;;;;;;;;;;4213660;28;19974;-41
2022/03/19 11:50:42;;;;;;;0.05;0.03;;;;;;;;;;4213918;28;20048;-41
2022/03/19 11:52:44;;;;;;;0.10;0.10;;;;;;;;;;4213847;28;20134;-42
2022/03/19 11:55:00;;;;;;;1.02;0.30;;;;;;;;;;4213782;28;20052;-42
2022/03/19 11:57:01;;;;;;;1.10;0.15;;;;;;;;;;4213493;28;20052;-40
2022/03/19 11:59:07;;;;;;;0.80;0.15;;;;;;;;;;4213750;28;20123;-40
2022/03/19 12:01:08;;;;;;;0.15;0.10;;;;;;;;;;4213532;28;20334;-44
2022/03/19 12:03:16;;;;;;;0.10;0.10;;;;;;;;;;4213108;28;20052;-40
2022/03/19 12:05:18;;;;;;;0.10;0.10;;;;;;;;;;4212416;28;20384;-40
2022/03/19 12:07:41;;;;;;;0.40;0.10;;;;;;;;;;4213597;28;20044;-42
2022/03/19 12:09:42;;;;;;;0.30;0.17;;;;;;;;;;4213715;28;20052;-41
2022/03/19 12:12:05;;;;;;;0.20;0.10;;;;;;;;;;4212223;28;20055;-42
2022/03/19 12:14:10;;;;;;;0.25;0.20;;;;;;;;;;4213568;28;20078;-41
2022/03/19 12:16:12;;;;;;;0.10;0.10;;;;;;;;;;4213453;28;20415;-40
2022/03/19 12:18:42;;;;;;;0.13;0.10;;;;;;;;;;4212783;28;20047;-41
2022/03/19 12:20:43;;;;;;;1.05;0.20;;;;;;;;;;4216898;28;20376;-40
2022/03/19 12:22:44;;;;;;;0.10;0.10;;;;;;;;;;4212031;28;20130;-40
2022/03/19 12:24:47;;;;;;;0.13;0.10;;;;;;;;;;4213468;28;20324;-41